sensor_id;sensor_type;location;lat;lon;timestamp;P1;durP1;ratioP1;P2;durP2;ratioP2
22007;SDS011;11168;56.976;24.168;2024-03-02T07:50:03;9.50;;;7.18;;
22007;SDS011;11168;56.976;24.168;2024-03-02T07:52:32;11.48;;;7.10;;
22007;SDS011;11168;56.976;24.168;2024-03-02T07:55:00;8.32;;;6.93;;
22007;SDS011;11168;56.976;24.168;2024-03-02T07:57:27;13.18;;;7.10;;
22007;SDS011;11168;56.976;24.168;2024-03-02T07:59:54;9.95;;;6.80;;
22007;SDS011;11168;56.976;24.168;2024-03-02T08:02:22;12.73;;;7.20;;
22007;SDS011;11168;56.976;24.168;2024-03-02T08:04:49;11.00;;;6.57;;
22007;SDS011;11168;56.976;24.168;2024-03-02T08:07:17;8.98;;;6.13;;
22007;SDS011;11168;56.976;24.168;2024-03-02T08:09:44;8.15;;;6.07;;
22007;SDS011;11168;56.976;24.168;2024-03-02T08:12:12;9.20;;;6.18;;
22007;SDS011;11168;56.976;24.168;2024-03-02T08:14:40;9.93;;;7.13;;
22007;SDS011;11168;56.976;24.168;2024-03-02T08:17:07;7.78;;;6.30;;
22007;SDS011;11168;56.976;24.168;2024-03-02T08:19:36;11.93;;;6.43;;
22007;SDS011;11168;56.976;24.168;2024-03-02T08:22:03;12.80;;;7.65;;
22007;SDS011;11168;56.976;24.168;2024-03-02T08:24:31;9.70;;;6.72;;
22007;SDS011;11168;56.976;24.168;2024-03-02T08:26:59;11.73;;;6.68;;
22007;SDS011;11168;56.976;24.168;2024-03-02T08:29:26;9.15;;;6.30;;
22007;SDS011;11168;56.976;24.168;2024-03-02T08:31:54;12.18;;;7.45;;
22007;SDS011;11168;56.976;24.168;2024-03-02T08:34:22;9.90;;;6.43;;
22007;SDS011;11168;56.976;24.168;2024-03-02T08:36:49;8.80;;;6.60;;
22007;SDS011;11168;56.976;24.168;2024-03-02T08:39:16;10.63;;;7.05;;
22007;SDS011;11168;56.976;24.168;2024-03-02T08:41:48;9.23;;;6.90;;
22007;SDS011;11168;56.976;24.168;2024-03-02T08:44:17;9.85;;;6.82;;
22007;SDS011;11168;56.976;24.168;2024-03-02T08:46:45;9.98;;;6.88;;
22007;SDS011;11168;56.976;24.168;2024-03-02T08:49:12;11.90;;;6.80;;
22007;SDS011;11168;56.976;24.168;2024-03-02T08:51:39;10.10;;;7.15;;
22007;SDS011;11168;56.976;24.168;2024-03-02T08:54:07;13.63;;;7.18;;
22007;SDS011;11168;56.976;24.168;2024-03-02T08:56:33;11.70;;;7.00;;
22007;SDS011;11168;56.976;24.168;2024-03-02T08:59:01;10.15;;;7.15;;
22007;SDS011;11168;56.976;24.168;2024-03-02T09:01:28;8.95;;;6.72;;
22007;SDS011;11168;56.976;24.168;2024-03-02T09:03:55;12.63;;;7.05;;
22007;SDS011;11168;56.976;24.168;2024-03-02T09:06:22;12.02;;;7.47;;
22007;SDS011;11168;56.976;24.168;2024-03-02T09:08:50;12.43;;;7.13;;
22007;SDS011;11168;56.976;24.168;2024-03-02T09:11:18;10.68;;;6.82;;
22007;SDS011;11168;56.976;24.168;2024-03-02T10:40:38;10.18;;;6.60;;
22007;SDS011;11168;56.976;24.168;2024-03-02T10:43:05;10.55;;;6.10;;
22007;SDS011;11168;56.976;24.168;2024-03-02T10:45:34;10.93;;;6.68;;
22007;SDS011;11168;56.976;24.168;2024-03-02T10:48:01;8.68;;;6.20;;
22007;SDS011;11168;56.976;24.168;2024-03-02T10:50:29;8.15;;;6.22;;
22007;SDS011;11168;56.976;24.168;2024-03-02T10:52:57;9.43;;;6.57;;
22007;SDS011;11168;56.976;24.168;2024-03-02T10:55:25;9.52;;;6.47;;
22007;SDS011;11168;56.976;24.168;2024-03-02T10:57:54;10.00;;;6.32;;
22007;SDS011;11168;56.976;24.168;2024-03-02T11:00:24;9.82;;;6.70;;
22007;SDS011;11168;56.976;24.168;2024-03-02T11:02:58;10.15;;;6.53;;
22007;SDS011;11168;56.976;24.168;2024-03-02T11:05:36;11.65;;;6.78;;
22007;SDS011;11168;56.976;24.168;2024-03-02T11:08:11;9.05;;;6.50;;
22007;SDS011;11168;56.976;24.168;2024-03-02T11:13:14;9.50;;;7.47;;
22007;SDS011;11168;56.976;24.168;2024-03-02T11:15:42;10.05;;;7.80;;
22007;SDS011;11168;56.976;24.168;2024-03-02T11:18:11;10.10;;;6.45;;
22007;SDS011;11168;56.976;24.168;2024-03-02T11:20:39;10.30;;;6.95;;
22007;SDS011;11168;56.976;24.168;2024-03-02T11:23:08;9.40;;;7.25;;
22007;SDS011;11168;56.976;24.168;2024-03-02T11:25:35;11.18;;;6.40;;
22007;SDS011;11168;56.976;24.168;2024-03-02T11:28:07;11.02;;;6.85;;
22007;SDS011;11168;56.976;24.168;2024-03-02T11:33:08;8.95;;;6.68;;
22007;SDS011;11168;56.976;24.168;2024-03-02T11:35:42;10.95;;;6.32;;
22007;SDS011;11168;56.976;24.168;2024-03-02T11:41:01;12.13;;;6.28;;
22007;SDS011;11168;56.976;24.168;2024-03-02T11:43:29;11.13;;;6.38;;
22007;SDS011;11168;56.976;24.168;2024-03-02T11:45:57;8.73;;;6.40;;
22007;SDS011;11168;56.976;24.168;2024-03-02T11:48:26;8.10;;;6.40;;
22007;SDS011;11168;56.976;24.168;2024-03-02T11:50:54;9.43;;;6.68;;
22007;SDS011;11168;56.976;24.168;2024-03-02T11:53:24;9.02;;;6.20;;
22007;SDS011;11168;56.976;24.168;2024-03-02T11:56:01;8.55;;;6.47;;
22007;SDS011;11168;56.976;24.168;2024-03-02T11:58:28;9.77;;;6.38;;
22007;SDS011;11168;56.976;24.168;2024-03-02T12:00:56;11.32;;;7.50;;
22007;SDS011;11168;56.976;24.168;2024-03-02T12:03:25;8.15;;;6.38;;
22007;SDS011;11168;56.976;24.168;2024-03-02T12:05:53;10.18;;;6.68;;
22007;SDS011;11168;56.976;24.168;2024-03-02T12:08:21;10.27;;;6.28;;
22007;SDS011;11168;56.976;24.168;2024-03-02T12:10:58;7.68;;;6.03;;
22007;SDS011;11168;56.976;24.168;2024-03-02T12:13:28;8.98;;;6.53;;
22007;SDS011;11168;56.976;24.168;2024-03-02T12:15:55;10.20;;;6.57;;
22007;SDS011;11168;56.976;24.168;2024-03-02T12:18:23;9.57;;;6.60;;
22007;SDS011;11168;56.976;24.168;2024-03-02T12:20:52;9.52;;;6.18;;
22007;SDS011;11168;56.976;24.168;2024-03-02T12:23:23;7.18;;;6.00;;
22007;SDS011;11168;56.976;24.168;2024-03-02T12:25:50;8.48;;;6.22;;
22007;SDS011;11168;56.976;24.168;2024-03-02T12:28:17;8.02;;;6.35;;
22007;SDS011;11168;56.976;24.168;2024-03-02T12:30:45;10.60;;;6.65;;
22007;SDS011;11168;56.976;24.168;2024-03-02T12:33:14;10.45;;;6.90;;
22007;SDS011;11168;56.976;24.168;2024-03-02T12:35:42;9.88;;;6.50;;
22007;SDS011;11168;56.976;24.168;2024-03-02T12:38:09;12.88;;;7.00;;
22007;SDS011;11168;56.976;24.168;2024-03-02T12:40:37;9.60;;;6.68;;
22007;SDS011;11168;56.976;24.168;2024-03-02T12:43:05;12.18;;;6.50;;
22007;SDS011;11168;56.976;24.168;2024-03-02T12:45:34;13.07;;;6.28;;
22007;SDS011;11168;56.976;24.168;2024-03-02T12:48:04;12.02;;;6.78;;
22007;SDS011;11168;56.976;24.168;2024-03-02T12:50:32;9.65;;;6.45;;
22007;SDS011;11168;56.976;24.168;2024-03-02T12:52:59;11.57;;;6.53;;
22007;SDS011;11168;56.976;24.168;2024-03-02T12:55:27;11.18;;;6.93;;
22007;SDS011;11168;56.976;24.168;2024-03-02T12:57:55;11.77;;;6.93;;
22007;SDS011;11168;56.976;24.168;2024-03-02T13:00:23;26.27;;;16.70;;
22007;SDS011;11168;56.976;24.168;2024-03-02T13:02:51;10.07;;;6.72;;
22007;SDS011;11168;56.976;24.168;2024-03-02T13:05:18;9.77;;;6.50;;
22007;SDS011;11168;56.976;24.168;2024-03-02T13:07:47;10.95;;;6.65;;
22007;SDS011;11168;56.976;24.168;2024-03-02T13:10:14;9.25;;;6.60;;
22007;SDS011;11168;56.976;24.168;2024-03-02T13:12:42;10.65;;;6.55;;
22007;SDS011;11168;56.976;24.168;2024-03-02T13:15:09;10.63;;;6.80;;
22007;SDS011;11168;56.976;24.168;2024-03-02T13:17:42;9.98;;;6.40;;
22007;SDS011;11168;56.976;24.168;2024-03-02T13:20:12;10.48;;;6.85;;
22007;SDS011;11168;56.976;24.168;2024-03-02T13:22:41;9.60;;;6.45;;
22007;SDS011;11168;56.976;24.168;2024-03-02T13:25:09;10.68;;;7.00;;
22007;SDS011;11168;56.976;24.168;2024-03-02T13:27:38;8.70;;;6.72;;
22007;SDS011;11168;56.976;24.168;2024-03-02T13:30:06;9.85;;;6.57;;
22007;SDS011;11168;56.976;24.168;2024-03-02T13:32:36;13.30;;;7.07;;
22007;SDS011;11168;56.976;24.168;2024-03-02T13:35:03;13.00;;;6.80;;
22007;SDS011;11168;56.976;24.168;2024-03-02T13:37:30;12.75;;;7.00;;
22007;SDS011;11168;56.976;24.168;2024-03-02T13:39:58;14.88;;;7.40;;
22007;SDS011;11168;56.976;24.168;2024-03-02T13:42:25;16.70;;;7.03;;
22007;SDS011;11168;56.976;24.168;2024-03-02T13:44:54;9.98;;;6.82;;
22007;SDS011;11168;56.976;24.168;2024-03-02T13:47:21;13.35;;;7.25;;
22007;SDS011;11168;56.976;24.168;2024-03-02T13:49:48;11.07;;;6.97;;
22007;SDS011;11168;56.976;24.168;2024-03-02T13:52:15;11.65;;;7.70;;
22007;SDS011;11168;56.976;24.168;2024-03-02T13:54:44;10.40;;;7.13;;
22007;SDS011;11168;56.976;24.168;2024-03-02T13:57:12;13.40;;;7.53;;
22007;SDS011;11168;56.976;24.168;2024-03-02T13:59:40;23.55;;;12.85;;
22007;SDS011;11168;56.976;24.168;2024-03-02T14:02:08;11.15;;;7.72;;
22007;SDS011;11168;56.976;24.168;2024-03-02T14:04:39;13.82;;;7.40;;
22007;SDS011;11168;56.976;24.168;2024-03-02T14:07:07;13.75;;;8.02;;
22007;SDS011;11168;56.976;24.168;2024-03-02T14:09:34;13.10;;;7.60;;
22007;SDS011;11168;56.976;24.168;2024-03-02T14:12:06;16.70;;;7.88;;
22007;SDS011;11168;56.976;24.168;2024-03-02T14:17:01;14.70;;;7.85;;
22007;SDS011;11168;56.976;24.168;2024-03-02T14:19:33;12.50;;;7.47;;
22007;SDS011;11168;56.976;24.168;2024-03-02T14:22:00;13.73;;;8.30;;
22007;SDS011;11168;56.976;24.168;2024-03-02T14:24:28;13.32;;;8.65;;
22007;SDS011;11168;56.976;24.168;2024-03-02T14:26:56;14.68;;;7.78;;
22007;SDS011;11168;56.976;24.168;2024-03-02T14:29:46;14.30;;;9.15;;
22007;SDS011;11168;56.976;24.168;2024-03-02T14:32:13;15.55;;;8.65;;
22007;SDS011;11168;56.976;24.168;2024-03-02T14:34:40;15.93;;;9.63;;
22007;SDS011;11168;56.976;24.168;2024-03-02T14:37:07;15.77;;;9.63;;
22007;SDS011;11168;56.976;24.168;2024-03-02T14:39:35;14.80;;;8.82;;
22007;SDS011;11168;56.976;24.168;2024-03-02T14:42:05;15.27;;;9.43;;
22007;SDS011;11168;56.976;24.168;2024-03-02T14:44:33;16.73;;;8.57;;
22007;SDS011;11168;56.976;24.168;2024-03-02T14:47:04;12.95;;;8.88;;
22007;SDS011;11168;56.976;24.168;2024-03-02T14:52:00;17.35;;;9.82;;
22007;SDS011;11168;56.976;24.168;2024-03-02T14:54:27;16.75;;;9.45;;
22007;SDS011;11168;56.976;24.168;2024-03-02T14:56:54;15.98;;;9.75;;
22007;SDS011;11168;56.976;24.168;2024-03-02T14:59:23;37.60;;;20.45;;
22007;SDS011;11168;56.976;24.168;2024-03-02T15:01:50;15.98;;;10.13;;
22007;SDS011;11168;56.976;24.168;2024-03-02T15:04:19;17.42;;;10.43;;
22007;SDS011;11168;56.976;24.168;2024-03-02T15:06:47;15.30;;;10.80;;
22007;SDS011;11168;56.976;24.168;2024-03-02T15:09:14;19.40;;;11.95;;
22007;SDS011;11168;56.976;24.168;2024-03-02T15:11:44;31.02;;;16.40;;
22007;SDS011;11168;56.976;24.168;2024-03-02T15:14:12;37.80;;;21.48;;
22007;SDS011;11168;56.976;24.168;2024-03-02T15:16:40;46.22;;;23.80;;
22007;SDS011;11168;56.976;24.168;2024-03-02T15:19:11;75.10;;;35.67;;
22007;SDS011;11168;56.976;24.168;2024-03-02T15:21:38;42.78;;;23.02;;
22007;SDS011;11168;56.976;24.168;2024-03-02T15:24:06;49.70;;;27.20;;
22007;SDS011;11168;56.976;24.168;2024-03-02T15:26:33;46.70;;;24.58;;
22007;SDS011;11168;56.976;24.168;2024-03-02T15:29:01;34.80;;;17.95;;
22007;SDS011;11168;56.976;24.168;2024-03-02T15:31:28;32.08;;;16.85;;
22007;SDS011;11168;56.976;24.168;2024-03-02T15:33:56;25.23;;;14.20;;
22007;SDS011;11168;56.976;24.168;2024-03-02T15:36:24;24.65;;;14.68;;
22007;SDS011;11168;56.976;24.168;2024-03-02T15:38:52;25.27;;;15.00;;
22007;SDS011;11168;56.976;24.168;2024-03-02T15:41:24;28.08;;;16.13;;
22007;SDS011;11168;56.976;24.168;2024-03-02T15:43:51;29.90;;;16.33;;
22007;SDS011;11168;56.976;24.168;2024-03-02T15:46:21;21.73;;;14.35;;
22007;SDS011;11168;56.976;24.168;2024-03-02T15:48:48;29.52;;;15.50;;
22007;SDS011;11168;56.976;24.168;2024-03-02T15:51:15;30.45;;;15.93;;
22007;SDS011;11168;56.976;24.168;2024-03-02T15:53:43;33.80;;;16.30;;
22007;SDS011;11168;56.976;24.168;2024-03-02T15:56:10;27.13;;;15.10;;
22007;SDS011;11168;56.976;24.168;2024-03-02T15:58:37;25.15;;;13.75;;
22007;SDS011;11168;56.976;24.168;2024-03-02T16:01:04;26.48;;;14.55;;
22007;SDS011;11168;56.976;24.168;2024-03-02T16:03:34;22.08;;;11.48;;
22007;SDS011;11168;56.976;24.168;2024-03-02T16:06:02;17.55;;;10.48;;
22007;SDS011;11168;56.976;24.168;2024-03-02T16:08:30;19.48;;;10.57;;
22007;SDS011;11168;56.976;24.168;2024-03-02T16:10:57;14.80;;;9.65;;
22007;SDS011;11168;56.976;24.168;2024-03-02T16:13:26;13.88;;;9.32;;
22007;SDS011;11168;56.976;24.168;2024-03-02T16:15:53;16.30;;;8.60;;
22007;SDS011;11168;56.976;24.168;2024-03-02T16:18:20;12.95;;;8.15;;
22007;SDS011;11168;56.976;24.168;2024-03-02T16:20:48;18.75;;;8.68;;
22007;SDS011;11168;56.976;24.168;2024-03-02T16:23:15;15.68;;;8.48;;
22007;SDS011;11168;56.976;24.168;2024-03-02T16:25:42;13.88;;;8.13;;
22007;SDS011;11168;56.976;24.168;2024-03-02T16:28:10;18.27;;;8.57;;
22007;SDS011;11168;56.976;24.168;2024-03-02T16:30:38;14.27;;;8.90;;
22007;SDS011;11168;56.976;24.168;2024-03-02T16:33:05;14.93;;;8.85;;
22007;SDS011;11168;56.976;24.168;2024-03-02T16:35:32;15.55;;;8.80;;
22007;SDS011;11168;56.976;24.168;2024-03-02T16:37:59;13.80;;;8.48;;
22007;SDS011;11168;56.976;24.168;2024-03-02T16:40:26;17.73;;;9.73;;
22007;SDS011;11168;56.976;24.168;2024-03-02T16:42:55;15.82;;;9.50;;
22007;SDS011;11168;56.976;24.168;2024-03-02T16:45:23;15.77;;;9.40;;
22007;SDS011;11168;56.976;24.168;2024-03-02T16:47:51;23.00;;;11.15;;
22007;SDS011;11168;56.976;24.168;2024-03-02T16:50:18;21.27;;;10.45;;
22007;SDS011;11168;56.976;24.168;2024-03-02T16:52:45;15.60;;;9.55;;
22007;SDS011;11168;56.976;24.168;2024-03-02T16:55:12;17.23;;;10.05;;
22007;SDS011;11168;56.976;24.168;2024-03-02T16:57:40;23.38;;;10.70;;
22007;SDS011;11168;56.976;24.168;2024-03-02T17:00:07;16.55;;;9.88;;
22007;SDS011;11168;56.976;24.168;2024-03-02T17:02:35;17.25;;;10.38;;
22007;SDS011;11168;56.976;24.168;2024-03-02T17:05:02;18.65;;;10.98;;
22007;SDS011;11168;56.976;24.168;2024-03-02T17:07:29;19.95;;;10.60;;
22007;SDS011;11168;56.976;24.168;2024-03-02T17:09:57;20.73;;;11.00;;
22007;SDS011;11168;56.976;24.168;2024-03-02T17:12:25;21.15;;;11.27;;
22007;SDS011;11168;56.976;24.168;2024-03-02T17:14:52;22.23;;;11.18;;
22007;SDS011;11168;56.976;24.168;2024-03-02T17:17:21;17.25;;;10.93;;
22007;SDS011;11168;56.976;24.168;2024-03-02T17:19:48;25.27;;;11.48;;
22007;SDS011;11168;56.976;24.168;2024-03-02T17:22:15;22.17;;;12.05;;
22007;SDS011;11168;56.976;24.168;2024-03-02T17:24:42;20.08;;;12.63;;
22007;SDS011;11168;56.976;24.168;2024-03-02T17:27:09;25.38;;;13.73;;
22007;SDS011;11168;56.976;24.168;2024-03-02T17:29:37;24.98;;;13.27;;
22007;SDS011;11168;56.976;24.168;2024-03-02T17:32:04;21.88;;;13.55;;
22007;SDS011;11168;56.976;24.168;2024-03-02T17:34:32;21.95;;;13.45;;
22007;SDS011;11168;56.976;24.168;2024-03-02T17:37:01;25.02;;;13.57;;
22007;SDS011;11168;56.976;24.168;2024-03-02T17:39:28;23.60;;;13.73;;
22007;SDS011;11168;56.976;24.168;2024-03-02T17:41:55;25.60;;;14.30;;
22007;SDS011;11168;56.976;24.168;2024-03-02T17:44:23;24.73;;;14.32;;
22007;SDS011;11168;56.976;24.168;2024-03-02T17:46:50;22.70;;;13.38;;
22007;SDS011;11168;56.976;24.168;2024-03-02T17:49:17;27.75;;;14.55;;
22007;SDS011;11168;56.976;24.168;2024-03-02T17:51:46;30.05;;;14.95;;
22007;SDS011;11168;56.976;24.168;2024-03-02T17:54:13;24.05;;;14.50;;
22007;SDS011;11168;56.976;24.168;2024-03-02T17:56:40;26.80;;;15.23;;
22007;SDS011;11168;56.976;24.168;2024-03-02T17:59:07;26.52;;;14.23;;
22007;SDS011;11168;56.976;24.168;2024-03-02T18:01:35;22.75;;;13.70;;
22007;SDS011;11168;56.976;24.168;2024-03-02T18:04:02;25.60;;;13.98;;
22007;SDS011;11168;56.976;24.168;2024-03-02T18:06:34;28.67;;;13.90;;
22007;SDS011;11168;56.976;24.168;2024-03-02T18:09:02;25.58;;;14.10;;
22007;SDS011;11168;56.976;24.168;2024-03-02T18:11:29;33.67;;;15.45;;
22007;SDS011;11168;56.976;24.168;2024-03-02T18:13:57;26.50;;;14.38;;
22007;SDS011;11168;56.976;24.168;2024-03-02T18:16:24;29.75;;;14.88;;
22007;SDS011;11168;56.976;24.168;2024-03-02T18:18:51;25.13;;;14.70;;
22007;SDS011;11168;56.976;24.168;2024-03-02T18:21:18;25.52;;;15.27;;
22007;SDS011;11168;56.976;24.168;2024-03-02T18:23:45;25.45;;;15.20;;
22007;SDS011;11168;56.976;24.168;2024-03-02T18:26:12;28.27;;;15.38;;
22007;SDS011;11168;56.976;24.168;2024-03-02T18:28:40;28.23;;;14.05;;
22007;SDS011;11168;56.976;24.168;2024-03-02T18:31:07;27.13;;;14.45;;
22007;SDS011;11168;56.976;24.168;2024-03-02T18:33:34;24.67;;;14.45;;
22007;SDS011;11168;56.976;24.168;2024-03-02T18:36:01;28.52;;;15.32;;
22007;SDS011;11168;56.976;24.168;2024-03-02T18:38:30;26.48;;;14.60;;
22007;SDS011;11168;56.976;24.168;2024-03-02T18:40:57;31.35;;;16.33;;
22007;SDS011;11168;56.976;24.168;2024-03-02T18:43:24;25.52;;;14.25;;
22007;SDS011;11168;56.976;24.168;2024-03-02T18:45:51;23.45;;;15.25;;
22007;SDS011;11168;56.976;24.168;2024-03-02T18:48:21;26.00;;;15.13;;
22007;SDS011;11168;56.976;24.168;2024-03-02T18:50:49;23.27;;;14.48;;
22007;SDS011;11168;56.976;24.168;2024-03-02T18:53:16;23.13;;;14.45;;
22007;SDS011;11168;56.976;24.168;2024-03-02T18:55:43;27.45;;;14.68;;
22007;SDS011;11168;56.976;24.168;2024-03-02T18:58:10;22.27;;;14.27;;
22007;SDS011;11168;56.976;24.168;2024-03-02T19:00:38;24.38;;;14.73;;
22007;SDS011;11168;56.976;24.168;2024-03-02T19:03:06;25.63;;;15.65;;
22007;SDS011;11168;56.976;24.168;2024-03-02T19:05:36;27.13;;;15.23;;
22007;SDS011;11168;56.976;24.168;2024-03-02T19:08:04;25.42;;;14.95;;
22007;SDS011;11168;56.976;24.168;2024-03-02T19:10:31;26.90;;;15.40;;
22007;SDS011;11168;56.976;24.168;2024-03-02T19:12:59;26.50;;;15.63;;
22007;SDS011;11168;56.976;24.168;2024-03-02T19:15:26;25.63;;;15.30;;
22007;SDS011;11168;56.976;24.168;2024-03-02T19:17:53;26.00;;;14.35;;
22007;SDS011;11168;56.976;24.168;2024-03-02T19:20:20;29.90;;;15.55;;
22007;SDS011;11168;56.976;24.168;2024-03-02T19:22:49;24.52;;;14.95;;
22007;SDS011;11168;56.976;24.168;2024-03-02T19:25:18;27.02;;;14.13;;
22007;SDS011;11168;56.976;24.168;2024-03-02T19:27:46;27.10;;;14.88;;
22007;SDS011;11168;56.976;24.168;2024-03-02T19:30:13;22.00;;;14.05;;
22007;SDS011;11168;56.976;24.168;2024-03-02T19:32:40;25.50;;;14.38;;
22007;SDS011;11168;56.976;24.168;2024-03-02T19:35:08;24.70;;;14.00;;
22007;SDS011;11168;56.976;24.168;2024-03-02T19:37:35;23.88;;;13.95;;
22007;SDS011;11168;56.976;24.168;2024-03-02T19:40:07;24.40;;;13.80;;
22007;SDS011;11168;56.976;24.168;2024-03-02T19:42:35;21.95;;;13.60;;
22007;SDS011;11168;56.976;24.168;2024-03-02T19:45:03;21.85;;;13.80;;
22007;SDS011;11168;56.976;24.168;2024-03-02T19:47:33;22.30;;;14.13;;
22007;SDS011;11168;56.976;24.168;2024-03-02T19:50:01;28.88;;;14.73;;
22007;SDS011;11168;56.976;24.168;2024-03-02T19:52:31;23.60;;;14.80;;
22007;SDS011;11168;56.976;24.168;2024-03-02T19:54:58;24.45;;;13.85;;
22007;SDS011;11168;56.976;24.168;2024-03-02T19:57:25;23.75;;;14.23;;
22007;SDS011;11168;56.976;24.168;2024-03-02T19:59:54;24.58;;;14.00;;
22007;SDS011;11168;56.976;24.168;2024-03-02T20:02:21;22.60;;;14.40;;
22007;SDS011;11168;56.976;24.168;2024-03-02T20:04:53;22.73;;;13.57;;
22007;SDS011;11168;56.976;24.168;2024-03-02T20:07:20;24.23;;;14.50;;
22007;SDS011;11168;56.976;24.168;2024-03-02T20:09:47;23.55;;;14.43;;
22007;SDS011;11168;56.976;24.168;2024-03-02T20:12:15;21.92;;;13.70;;
22007;SDS011;11168;56.976;24.168;2024-03-02T20:14:44;21.92;;;14.02;;
22007;SDS011;11168;56.976;24.168;2024-03-02T20:17:11;26.48;;;14.18;;
22007;SDS011;11168;56.976;24.168;2024-03-02T20:27:12;23.05;;;12.77;;
22007;SDS011;11168;56.976;24.168;2024-03-02T20:29:40;22.80;;;13.95;;
22007;SDS011;11168;56.976;24.168;2024-03-02T20:32:07;21.70;;;13.73;;
22007;SDS011;11168;56.976;24.168;2024-03-02T20:34:34;26.23;;;13.43;;
22007;SDS011;11168;56.976;24.168;2024-03-02T20:37:01;25.20;;;13.80;;
22007;SDS011;11168;56.976;24.168;2024-03-02T20:39:29;22.38;;;13.48;;
22007;SDS011;11168;56.976;24.168;2024-03-02T20:41:57;27.10;;;13.18;;
22007;SDS011;11168;56.976;24.168;2024-03-02T20:44:24;23.77;;;13.57;;
22007;SDS011;11168;56.976;24.168;2024-03-02T20:46:52;25.00;;;13.27;;
22007;SDS011;11168;56.976;24.168;2024-03-02T20:49:20;22.75;;;13.50;;
22007;SDS011;11168;56.976;24.168;2024-03-02T20:51:50;25.63;;;14.38;;
22007;SDS011;11168;56.976;24.168;2024-03-02T20:54:17;24.63;;;13.05;;
22007;SDS011;11168;56.976;24.168;2024-03-02T20:56:44;22.98;;;12.68;;
22007;SDS011;11168;56.976;24.168;2024-03-02T20:59:12;22.35;;;13.20;;
22007;SDS011;11168;56.976;24.168;2024-03-02T21:01:39;26.08;;;14.48;;
22007;SDS011;11168;56.976;24.168;2024-03-02T21:04:07;25.55;;;14.05;;
22007;SDS011;11168;56.976;24.168;2024-03-02T21:06:40;25.70;;;13.88;;
22007;SDS011;11168;56.976;24.168;2024-03-02T21:09:08;23.40;;;13.65;;
22007;SDS011;11168;56.976;24.168;2024-03-02T21:11:38;22.92;;;13.27;;
22007;SDS011;11168;56.976;24.168;2024-03-02T21:14:07;25.38;;;13.32;;
22007;SDS011;11168;56.976;24.168;2024-03-02T21:16:34;26.05;;;13.55;;
22007;SDS011;11168;56.976;24.168;2024-03-02T21:19:01;23.48;;;13.98;;
22007;SDS011;11168;56.976;24.168;2024-03-02T21:21:28;23.88;;;12.68;;
22007;SDS011;11168;56.976;24.168;2024-03-02T21:23:56;26.63;;;13.35;;
22007;SDS011;11168;56.976;24.168;2024-03-02T21:26:23;22.67;;;12.85;;
22007;SDS011;11168;56.976;24.168;2024-03-02T21:28:50;25.15;;;14.07;;
22007;SDS011;11168;56.976;24.168;2024-03-02T21:31:17;22.02;;;12.98;;
22007;SDS011;11168;56.976;24.168;2024-03-02T21:33:44;22.13;;;12.65;;
22007;SDS011;11168;56.976;24.168;2024-03-02T21:36:11;21.55;;;12.77;;
22007;SDS011;11168;56.976;24.168;2024-03-02T21:38:38;21.48;;;12.57;;
22007;SDS011;11168;56.976;24.168;2024-03-02T21:41:05;22.90;;;12.23;;
22007;SDS011;11168;56.976;24.168;2024-03-02T21:43:33;20.90;;;12.88;;
22007;SDS011;11168;56.976;24.168;2024-03-02T21:46:02;22.75;;;13.60;;
22007;SDS011;11168;56.976;24.168;2024-03-02T21:48:29;26.38;;;13.48;;
22007;SDS011;11168;56.976;24.168;2024-03-02T21:50:56;22.95;;;13.10;;
22007;SDS011;11168;56.976;24.168;2024-03-02T21:53:23;24.60;;;12.68;;
22007;SDS011;11168;56.976;24.168;2024-03-02T21:55:50;24.08;;;13.82;;
22007;SDS011;11168;56.976;24.168;2024-03-02T21:58:17;21.90;;;13.35;;
22007;SDS011;11168;56.976;24.168;2024-03-02T22:00:44;26.25;;;13.75;;
22007;SDS011;11168;56.976;24.168;2024-03-02T22:03:12;26.80;;;12.90;;
22007;SDS011;11168;56.976;24.168;2024-03-02T22:05:39;21.90;;;12.43;;
22007;SDS011;11168;56.976;24.168;2024-03-02T22:08:07;28.83;;;13.38;;
22007;SDS011;11168;56.976;24.168;2024-03-02T22:10:34;29.73;;;13.35;;
22007;SDS011;11168;56.976;24.168;2024-03-02T22:13:01;24.83;;;14.40;;
22007;SDS011;11168;56.976;24.168;2024-03-02T22:15:30;24.40;;;13.27;;
22007;SDS011;11168;56.976;24.168;2024-03-02T22:17:58;21.80;;;12.73;;
22007;SDS011;11168;56.976;24.168;2024-03-02T22:20:29;21.83;;;13.25;;
22007;SDS011;11168;56.976;24.168;2024-03-02T22:22:57;25.33;;;14.00;;
22007;SDS011;11168;56.976;24.168;2024-03-02T22:25:24;23.17;;;14.27;;
22007;SDS011;11168;56.976;24.168;2024-03-02T22:27:51;24.58;;;14.57;;
22007;SDS011;11168;56.976;24.168;2024-03-02T22:30:22;25.30;;;14.40;;
22007;SDS011;11168;56.976;24.168;2024-03-02T22:32:49;23.77;;;13.60;;
22007;SDS011;11168;56.976;24.168;2024-03-02T22:35:24;21.15;;;13.35;;
22007;SDS011;11168;56.976;24.168;2024-03-02T22:37:52;24.75;;;13.93;;
22007;SDS011;11168;56.976;24.168;2024-03-02T22:40:19;25.70;;;14.40;;
22007;SDS011;11168;56.976;24.168;2024-03-02T22:42:49;26.30;;;13.73;;
22007;SDS011;11168;56.976;24.168;2024-03-02T22:45:16;22.50;;;13.07;;
22007;SDS011;11168;56.976;24.168;2024-03-02T22:47:43;22.85;;;13.38;;
22007;SDS011;11168;56.976;24.168;2024-03-02T22:50:10;24.15;;;13.75;;
22007;SDS011;11168;56.976;24.168;2024-03-02T22:52:37;27.60;;;14.07;;
22007;SDS011;11168;56.976;24.168;2024-03-02T22:55:04;25.15;;;14.00;;
22007;SDS011;11168;56.976;24.168;2024-03-02T22:57:32;24.17;;;13.23;;
22007;SDS011;11168;56.976;24.168;2024-03-02T22:59:59;27.50;;;13.65;;
22007;SDS011;11168;56.976;24.168;2024-03-02T23:02:26;23.88;;;13.73;;
22007;SDS011;11168;56.976;24.168;2024-03-02T23:04:53;21.98;;;13.15;;
22007;SDS011;11168;56.976;24.168;2024-03-02T23:07:20;27.20;;;14.25;;
22007;SDS011;11168;56.976;24.168;2024-03-02T23:09:48;21.40;;;13.18;;
22007;SDS011;11168;56.976;24.168;2024-03-02T23:12:15;27.30;;;14.95;;
22007;SDS011;11168;56.976;24.168;2024-03-02T23:14:42;27.50;;;12.88;;
22007;SDS011;11168;56.976;24.168;2024-03-02T23:17:09;26.35;;;14.30;;
22007;SDS011;11168;56.976;24.168;2024-03-02T23:19:37;27.55;;;14.10;;
22007;SDS011;11168;56.976;24.168;2024-03-02T23:22:04;25.65;;;13.88;;
22007;SDS011;11168;56.976;24.168;2024-03-02T23:24:36;29.33;;;14.52;;
22007;SDS011;11168;56.976;24.168;2024-03-02T23:27:03;23.15;;;13.85;;
22007;SDS011;11168;56.976;24.168;2024-03-02T23:29:30;29.80;;;14.15;;
22007;SDS011;11168;56.976;24.168;2024-03-02T23:31:59;24.42;;;13.50;;
22007;SDS011;11168;56.976;24.168;2024-03-02T23:34:26;24.27;;;13.10;;
22007;SDS011;11168;56.976;24.168;2024-03-02T23:36:54;23.38;;;13.75;;
22007;SDS011;11168;56.976;24.168;2024-03-02T23:39:21;26.02;;;13.73;;
22007;SDS011;11168;56.976;24.168;2024-03-02T23:42:08;26.23;;;13.70;;
22007;SDS011;11168;56.976;24.168;2024-03-02T23:44:35;22.90;;;12.82;;
22007;SDS011;11168;56.976;24.168;2024-03-02T23:47:02;23.30;;;12.80;;
22007;SDS011;11168;56.976;24.168;2024-03-02T23:49:31;29.58;;;13.57;;
22007;SDS011;11168;56.976;24.168;2024-03-02T23:51:58;24.42;;;13.43;;
22007;SDS011;11168;56.976;24.168;2024-03-02T23:54:26;30.52;;;13.40;;
22007;SDS011;11168;56.976;24.168;2024-03-02T23:56:53;28.83;;;13.85;;